Time;durP1;ratioP1;P1;durP2;ratioP2;P2;SDS_P1;SDS_P2;PMS_P1;PMS_P2;Temp;Humidity;BMP_temperature;BMP_pressure;BME280_temperature;BME280_humidity;BME280_pressure;Samples;Min_cycle;Max_cycle;Signal;HPM_P1;HPM_P2
2021/05/15 00:02:23;;;;;;;2.97;1.08;;;;;;;;;;5093039;28;20020;-19
2021/05/15 00:04:48;;;;;;;3.30;1.40;;;;;;;;;;5093264;28;20032;-19
2021/05/15 00:07:14;;;;;;;1.00;0.90;;;;;;;;;;5092897;28;20459;-18
2021/05/15 00:09:39;;;;;;;1.77;1.42;;;;;;;;;;5092934;28;20032;-19
2021/05/15 00:12:04;;;;;;;2.05;1.25;;;;;;;;;;5093120;28;20023;-18
2021/05/15 00:14:31;;;;;;;4.43;1.33;;;;;;;;;;5093090;28;20462;-19
2021/05/15 00:16:56;;;;;;;1.30;1.08;;;;;;;;;;5092852;28;20466;-19
2021/05/15 00:19:21;;;;;;;1.48;1.13;;;;;;;;;;5093015;28;20044;-19
2021/05/15 00:21:47;;;;;;;1.80;1.67;;;;;;;;;;5091425;28;20032;-19
2021/05/15 00:24:13;;;;;;;1.80;1.58;;;;;;;;;;5092734;28;20020;-18
2021/05/15 00:26:38;;;;;;;2.10;1.50;;;;;;;;;;5092338;28;20036;-19
2021/05/15 00:29:04;;;;;;;2.47;2.08;;;;;;;;;;5108450;28;20032;-19
2021/05/15 00:31:29;;;;;;;3.83;1.42;;;;;;;;;;5092928;28;20036;-16
2021/05/15 00:33:55;;;;;;;4.95;1.58;;;;;;;;;;5092096;28;20043;-16
2021/05/15 00:36:20;;;;;;;2.35;1.80;;;;;;;;;;5092499;28;20386;-17
2021/05/15 00:38:45;;;;;;;2.22;1.58;;;;;;;;;;5092898;28;20032;-18
2021/05/15 00:41:11;;;;;;;7.22;1.98;;;;;;;;;;5092327;28;20020;-19
2021/05/15 00:43:44;;;;;;;3.33;1.80;;;;;;;;;;5091231;28;20040;-18
2021/05/15 00:46:09;;;;;;;2.63;1.70;;;;;;;;;;5092352;28;20028;-19
2021/05/15 00:48:35;;;;;;;1.77;1.10;;;;;;;;;;5092626;28;20036;-19
2021/05/15 00:51:02;;;;;;;1.42;0.85;;;;;;;;;;5092478;28;20106;-19
2021/05/15 00:53:27;;;;;;;1.48;1.10;;;;;;;;;;5092330;28;20020;-18
2021/05/15 00:55:53;;;;;;;1.42;1.23;;;;;;;;;;5108003;28;20039;-19
2021/05/15 00:58:18;;;;;;;2.63;1.60;;;;;;;;;;5108053;28;20020;-19
2021/05/15 01:00:43;;;;;;;2.38;1.70;;;;;;;;;;5092440;28;20021;-19
2021/05/15 01:03:10;;;;;;;3.47;1.05;;;;;;;;;;5092231;28;20467;-18
2021/05/15 01:05:36;;;;;;;2.70;1.35;;;;;;;;;;5092598;28;20020;-19
2021/05/15 01:08:01;;;;;;;4.47;1.27;;;;;;;;;;5092172;28;20024;-19
2021/05/15 01:10:26;;;;;;;3.65;1.10;;;;;;;;;;5092150;28;20028;-19
2021/05/15 01:12:57;;;;;;;2.05;1.38;;;;;;;;;;5092266;28;20023;-19
2021/05/15 01:15:27;;;;;;;2.67;1.20;;;;;;;;;;5092205;28;20039;-19
2021/05/15 01:17:55;;;;;;;2.65;1.17;;;;;;;;;;5092192;28;20587;-18
2021/05/15 01:20:21;;;;;;;2.75;1.30;;;;;;;;;;5092137;28;20016;-19
2021/05/15 01:22:47;;;;;;;4.85;1.17;;;;;;;;;;5092093;28;20020;-19
2021/05/15 01:25:13;;;;;;;2.65;1.30;;;;;;;;;;5091881;28;20026;-18
2021/05/15 01:27:39;;;;;;;3.15;0.90;;;;;;;;;;5092135;28;20445;-19
2021/05/15 01:30:05;;;;;;;1.38;1.10;;;;;;;;;;5092094;28;20077;-19
2021/05/15 01:32:30;;;;;;;2.03;1.25;;;;;;;;;;5092037;28;20592;-20
2021/05/15 01:34:56;;;;;;;0.90;0.80;;;;;;;;;;5092082;28;20102;-19
2021/05/15 01:37:21;;;;;;;2.47;1.20;;;;;;;;;;5092243;28;20485;-18
2021/05/15 01:39:47;;;;;;;1.13;0.90;;;;;;;;;;5092315;28;20688;-19
2021/05/15 01:42:12;;;;;;;4.03;1.08;;;;;;;;;;5092222;28;20693;-19
2021/05/15 01:44:37;;;;;;;2.92;1.30;;;;;;;;;;5091864;28;20035;-18
2021/05/15 01:47:03;;;;;;;1.40;1.00;;;;;;;;;;5094576;28;20038;-18
2021/05/15 01:49:28;;;;;;;3.33;0.98;;;;;;;;;;5095534;28;20051;-18
2021/05/15 01:51:53;;;;;;;1.33;0.80;;;;;;;;;;5095964;28;20065;-18
2021/05/15 01:54:19;;;;;;;3.15;1.20;;;;;;;;;;5094052;28;20482;-18
2021/05/15 01:56:44;;;;;;;4.13;1.50;;;;;;;;;;5111292;28;20020;-18
2021/05/15 01:59:10;;;;;;;1.20;1.08;;;;;;;;;;5095528;28;20027;-19
2021/05/15 02:01:36;;;;;;;4.65;1.00;;;;;;;;;;5095350;28;20473;-19
2021/05/15 02:04:01;;;;;;;3.30;1.42;;;;;;;;;;5111121;28;20032;-19
2021/05/15 02:06:27;;;;;;;4.22;1.35;;;;;;;;;;5095081;28;20031;-18
2021/05/15 02:08:52;;;;;;;1.27;1.08;;;;;;;;;;5095289;28;20055;-18
2021/05/15 02:11:17;;;;;;;2.97;1.00;;;;;;;;;;5110914;28;20027;-18
2021/05/15 02:13:43;;;;;;;0.95;0.77;;;;;;;;;;5095383;28;20024;-18
2021/05/15 02:16:09;;;;;;;3.85;0.90;;;;;;;;;;5095032;28;20447;-18
2021/05/15 02:18:34;;;;;;;2.70;1.65;;;;;;;;;;5095359;28;20035;-18
2021/05/15 02:20:59;;;;;;;4.57;0.93;;;;;;;;;;5095184;28;20752;-18
2021/05/15 02:23:25;;;;;;;4.53;1.73;;;;;;;;;;5094942;28;20474;-18
2021/05/15 02:25:53;;;;;;;7.25;1.42;;;;;;;;;;5094839;28;20048;-18
2021/05/15 02:28:18;;;;;;;3.35;1.27;;;;;;;;;;5094648;28;20044;-17
2021/05/15 02:30:44;;;;;;;3.20;1.60;;;;;;;;;;5093517;28;20058;-17
2021/05/15 02:33:10;;;;;;;3.78;1.27;;;;;;;;;;5094941;28;20073;-17
2021/05/15 02:35:36;;;;;;;2.75;1.25;;;;;;;;;;5094749;28;20414;-18
2021/05/15 02:38:01;;;;;;;5.00;1.70;;;;;;;;;;5094962;28;20536;-18
2021/05/15 02:40:26;;;;;;;1.27;1.13;;;;;;;;;;5094548;28;20020;-21
2021/05/15 02:42:52;;;;;;;2.90;0.85;;;;;;;;;;5094654;28;20081;-17
2021/05/15 02:45:19;;;;;;;5.18;1.10;;;;;;;;;;5094325;28;20099;-17
2021/05/15 02:47:44;;;;;;;3.60;1.08;;;;;;;;;;5093213;28;20039;-18
2021/05/15 02:50:11;;;;;;;3.83;1.00;;;;;;;;;;5094300;28;20523;-18
2021/05/15 02:52:36;;;;;;;1.88;1.02;;;;;;;;;;5093143;28;20024;-18
2021/05/15 02:55:03;;;;;;;3.33;1.10;;;;;;;;;;5094372;28;20027;-18
2021/05/15 02:57:29;;;;;;;3.40;1.40;;;;;;;;;;5094056;28;20378;-18
2021/05/15 02:59:54;;;;;;;1.40;1.15;;;;;;;;;;5094240;28;20111;-18
2021/05/15 03:02:20;;;;;;;1.08;0.75;;;;;;;;;;5094158;28;20032;-19
2021/05/15 03:04:45;;;;;;;1.67;0.90;;;;;;;;;;5094111;28;20112;-18
2021/05/15 03:07:10;;;;;;;5.20;0.52;;;;;;;;;;5092683;28;20040;-18
2021/05/15 03:09:36;;;;;;;3.72;0.63;;;;;;;;;;5094018;28;20074;-18
2021/05/15 03:12:01;;;;;;;2.15;0.50;;;;;;;;;;5093988;28;20020;-18
2021/05/15 03:14:26;;;;;;;0.55;0.55;;;;;;;;;;5093912;28;20024;-18
2021/05/15 03:16:52;;;;;;;1.50;0.77;;;;;;;;;;5093983;28;20028;-18
2021/05/15 03:19:17;;;;;;;2.05;0.70;;;;;;;;;;5093783;28;20371;-18
2021/05/15 03:21:42;;;;;;;4.00;0.90;;;;;;;;;;5093792;28;20364;-18
2021/05/15 03:24:08;;;;;;;1.20;0.47;;;;;;;;;;5093954;28;20093;-18
2021/05/15 03:26:33;;;;;;;1.55;0.43;;;;;;;;;;5093640;28;20518;-18
2021/05/15 03:28:58;;;;;;;2.55;0.50;;;;;;;;;;5093999;28;20367;-18
2021/05/15 03:31:24;;;;;;;2.40;0.98;;;;;;;;;;5109325;28;20107;-18
2021/05/15 03:33:49;;;;;;;1.88;0.85;;;;;;;;;;5109573;28;20024;-18
2021/05/15 03:36:14;;;;;;;6.35;1.25;;;;;;;;;;5093753;28;20099;-18
2021/05/15 03:38:40;;;;;;;0.85;0.50;;;;;;;;;;5093549;28;20050;-18
2021/05/15 03:41:05;;;;;;;1.08;0.63;;;;;;;;;;5109228;28;20158;-18
2021/05/15 03:43:31;;;;;;;3.78;0.73;;;;;;;;;;5093460;28;20016;-18
2021/05/15 03:45:56;;;;;;;1.55;0.82;;;;;;;;;;5093301;28;20032;-18
2021/05/15 03:48:22;;;;;;;1.08;0.60;;;;;;;;;;5093210;28;20497;-18
2021/05/15 03:50:51;;;;;;;1.02;0.55;;;;;;;;;;5093581;28;20024;-18
2021/05/15 03:53:17;;;;;;;3.55;0.77;;;;;;;;;;5093432;28;20106;-18
2021/05/15 03:55:43;;;;;;;5.10;0.70;;;;;;;;;;5093210;28;20111;-18
2021/05/15 03:58:08;;;;;;;2.60;0.75;;;;;;;;;;5093381;28;20028;-19
2021/05/15 04:00:34;;;;;;;2.28;0.70;;;;;;;;;;5093053;28;20459;-19
2021/05/15 04:02:59;;;;;;;1.15;0.52;;;;;;;;;;5093130;28;20020;-18
2021/05/15 04:05:25;;;;;;;2.20;0.70;;;;;;;;;;5093222;28;20031;-18
2021/05/15 04:07:50;;;;;;;0.47;0.47;;;;;;;;;;5092889;28;20031;-18
2021/05/15 04:10:15;;;;;;;3.17;0.95;;;;;;;;;;5092293;28;20077;-18
2021/05/15 04:12:49;;;;;;;2.95;0.80;;;;;;;;;;5092921;28;20028;-18
2021/05/15 04:15:26;;;;;;;0.40;0.40;;;;;;;;;;5092835;28;20082;-18
2021/05/15 04:17:51;;;;;;;2.85;0.65;;;;;;;;;;5108538;28;20451;-19
2021/05/15 04:20:16;;;;;;;6.25;1.60;;;;;;;;;;5092868;28;20058;-18
2021/05/15 04:22:42;;;;;;;6.10;1.02;;;;;;;;;;5092925;28;20028;-18
2021/05/15 04:25:07;;;;;;;1.50;0.50;;;;;;;;;;5091226;28;20023;-19
2021/05/15 04:27:33;;;;;;;0.63;0.63;;;;;;;;;;5092755;28;20039;-19
2021/05/15 04:29:59;;;;;;;0.77;0.30;;;;;;;;;;5091597;28;20441;-19
2021/05/15 04:32:24;;;;;;;0.93;0.40;;;;;;;;;;5092641;28;20032;-19
2021/05/15 04:34:49;;;;;;;3.72;0.60;;;;;;;;;;5092783;28;20069;-18
2021/05/15 04:37:15;;;;;;;0.47;0.32;;;;;;;;;;5092801;28;20600;-19
2021/05/15 04:39:40;;;;;;;2.38;0.60;;;;;;;;;;5092610;28;20493;-19
2021/05/15 04:42:05;;;;;;;0.38;0.32;;;;;;;;;;5091353;28;20035;-19
2021/05/15 04:44:31;;;;;;;1.00;0.80;;;;;;;;;;5092411;28;20024;-19
2021/05/15 04:46:56;;;;;;;1.15;0.60;;;;;;;;;;5092418;28;20115;-19
2021/05/15 04:49:22;;;;;;;3.50;0.70;;;;;;;;;;5092284;28;20024;-19
2021/05/15 04:51:47;;;;;;;0.40;0.38;;;;;;;;;;5092352;28;20035;-18
2021/05/15 04:54:13;;;;;;;2.05;0.47;;;;;;;;;;5107658;28;20027;-18
2021/05/15 04:56:38;;;;;;;2.00;0.75;;;;;;;;;;5091929;28;20463;-19
2021/05/15 04:59:04;;;;;;;0.95;0.68;;;;;;;;;;5091651;28;20020;-19
2021/05/15 05:01:30;;;;;;;1.48;0.68;;;;;;;;;;5091802;28;20024;-19
2021/05/15 05:03:55;;;;;;;0.50;0.40;;;;;;;;;;5091805;28;20036;-18
2021/05/15 05:06:21;;;;;;;0.40;0.40;;;;;;;;;;5092119;28;20025;-19
2021/05/15 05:08:46;;;;;;;0.50;0.38;;;;;;;;;;5092152;28;20040;-18
2021/05/15 05:11:11;;;;;;;0.30;0.30;;;;;;;;;;5092380;28;20043;-18
2021/05/15 05:13:37;;;;;;;0.40;0.40;;;;;;;;;;5092216;28;20028;-18
2021/05/15 05:16:02;;;;;;;3.05;0.50;;;;;;;;;;5092388;28;20025;-18
2021/05/15 05:18:28;;;;;;;1.20;0.40;;;;;;;;;;5092006;28;20032;-18
2021/05/15 05:20:56;;;;;;;1.10;0.57;;;;;;;;;;5094717;28;20053;-18
2021/05/15 05:23:21;;;;;;;0.77;0.57;;;;;;;;;;5096107;28;20023;-19
2021/05/15 05:25:47;;;;;;;1.17;0.52;;;;;;;;;;5094533;28;20135;-19
2021/05/15 05:28:15;;;;;;;5.45;0.93;;;;;;;;;;5096185;28;20040;-19
2021/05/15 05:30:41;;;;;;;0.50;0.43;;;;;;;;;;5096017;28;20070;-18
2021/05/15 05:33:07;;;;;;;0.85;0.50;;;;;;;;;;5096095;28;20147;-19
2021/05/15 05:35:34;;;;;;;5.68;0.65;;;;;;;;;;5095674;28;20020;-19
2021/05/15 05:38:01;;;;;;;0.45;0.40;;;;;;;;;;5096127;28;20035;-19
2021/05/15 05:40:26;;;;;;;0.50;0.30;;;;;;;;;;5095995;28;20464;-18
2021/05/15 05:42:51;;;;;;;0.90;0.77;;;;;;;;;;5095156;28;20099;-19
2021/05/15 05:45:17;;;;;;;1.20;0.40;;;;;;;;;;5095039;28;20016;-19
2021/05/15 05:47:42;;;;;;;0.55;0.40;;;;;;;;;;5095210;28;20028;-19
2021/05/15 05:50:08;;;;;;;0.82;0.50;;;;;;;;;;5095585;28;20031;-18
2021/05/15 05:52:34;;;;;;;0.50;0.32;;;;;;;;;;5094704;28;20024;-19
2021/05/15 05:55:00;;;;;;;5.70;0.55;;;;;;;;;;5095283;28;20031;-19
2021/05/15 05:57:25;;;;;;;2.03;0.40;;;;;;;;;;5094839;28;20020;-19
2021/05/15 05:59:51;;;;;;;3.08;0.60;;;;;;;;;;5093626;28;20056;-19
2021/05/15 06:02:16;;;;;;;1.13;0.90;;;;;;;;;;5093460;28;20017;-19
2021/05/15 06:04:41;;;;;;;4.10;0.80;;;;;;;;;;5095245;28;20106;-19
2021/05/15 06:07:07;;;;;;;1.77;0.88;;;;;;;;;;5093982;28;20031;-19
2021/05/15 06:09:33;;;;;;;0.95;0.63;;;;;;;;;;5095021;28;20511;-19
2021/05/15 06:11:59;;;;;;;0.70;0.60;;;;;;;;;;5095158;28;20063;-19
2021/05/15 06:14:24;;;;;;;1.30;0.90;;;;;;;;;;5095023;28;20032;-19
2021/05/15 06:16:49;;;;;;;0.50;0.40;;;;;;;;;;5093534;28;20095;-19
2021/05/15 06:19:18;;;;;;;1.02;0.50;;;;;;;;;;5076903;28;20028;-19
2021/05/15 06:21:43;;;;;;;2.65;0.82;;;;;;;;;;5095212;28;20024;-19
2021/05/15 06:24:09;;;;;;;0.45;0.40;;;;;;;;;;5094835;28;20460;-19
2021/05/15 06:26:34;;;;;;;0.93;0.60;;;;;;;;;;5094867;28;20040;-19
2021/05/15 06:29:00;;;;;;;1.30;0.55;;;;;;;;;;5093716;28;20500;-19
2021/05/15 06:31:25;;;;;;;3.20;0.68;;;;;;;;;;5094181;28;20068;-19
2021/05/15 06:33:51;;;;;;;0.38;0.38;;;;;;;;;;5093322;28;20035;-19
2021/05/15 06:36:16;;;;;;;0.32;0.32;;;;;;;;;;5094665;28;20048;-19
2021/05/15 06:38:42;;;;;;;0.25;0.22;;;;;;;;;;5094658;28;20028;-19
2021/05/15 06:41:08;;;;;;;2.45;0.68;;;;;;;;;;5094685;28;20031;-19
2021/05/15 06:43:33;;;;;;;0.60;0.60;;;;;;;;;;5093212;28;20028;-19
2021/05/15 06:45:58;;;;;;;1.00;0.45;;;;;;;;;;5093088;28;20020;-19
2021/05/15 06:48:24;;;;;;;2.97;0.70;;;;;;;;;;5094441;28;20063;-19
2021/05/15 06:50:49;;;;;;;2.63;0.50;;;;;;;;;;5094642;28;20012;-19
2021/05/15 06:53:15;;;;;;;0.60;0.25;;;;;;;;;;5094346;28;20032;-19
2021/05/15 06:55:40;;;;;;;1.15;0.52;;;;;;;;;;5094676;28;20077;-19
2021/05/15 06:58:05;;;;;;;1.52;0.68;;;;;;;;;;5094580;28;20028;-19
2021/05/15 07:00:31;;;;;;;1.38;0.70;;;;;;;;;;5094185;28;20012;-19
2021/05/15 07:02:57;;;;;;;2.45;0.57;;;;;;;;;;5094323;28;20024;-19
2021/05/15 07:05:22;;;;;;;0.95;0.50;;;;;;;;;;5094025;28;20019;-19
2021/05/15 07:07:48;;;;;;;0.75;0.70;;;;;;;;;;5094071;28;20036;-18
2021/05/15 07:10:13;;;;;;;2.20;0.50;;;;;;;;;;5094071;28;20016;-18
2021/05/15 07:12:38;;;;;;;3.22;0.68;;;;;;;;;;5094013;28;20035;-18
2021/05/15 07:15:05;;;;;;;3.28;1.08;;;;;;;;;;5094044;28;20012;-18
2021/05/15 07:17:31;;;;;;;1.52;0.45;;;;;;;;;;5075736;28;20016;-18
2021/05/15 07:19:56;;;;;;;0.60;0.40;;;;;;;;;;5093958;28;20458;-18
2021/05/15 07:22:24;;;;;;;2.58;0.60;;;;;;;;;;5094070;28;20049;-18
2021/05/15 07:24:49;;;;;;;0.65;0.30;;;;;;;;;;5093810;28;20020;-18
2021/05/15 07:27:15;;;;;;;0.52;0.40;;;;;;;;;;5093430;28;20059;-18
2021/05/15 07:29:41;;;;;;;0.90;0.50;;;;;;;;;;5093751;28;20035;-18
2021/05/15 07:32:06;;;;;;;0.65;0.43;;;;;;;;;;5093949;28;20223;-18
2021/05/15 07:34:32;;;;;;;2.08;0.60;;;;;;;;;;5093442;28;20020;-18
2021/05/15 07:36:57;;;;;;;1.58;0.82;;;;;;;;;;5093850;28;20032;-18
2021/05/15 07:39:22;;;;;;;0.60;0.47;;;;;;;;;;5093541;28;20023;-18
2021/05/15 07:41:48;;;;;;;4.32;0.50;;;;;;;;;;5093472;28;20024;-18
2021/05/15 07:44:13;;;;;;;0.32;0.32;;;;;;;;;;5092360;28;20016;-18
2021/05/15 07:46:39;;;;;;;1.48;0.45;;;;;;;;;;5093345;28;20074;-19
2021/05/15 07:49:04;;;;;;;1.80;0.52;;;;;;;;;;5093287;28;20023;-18
2021/05/15 07:51:29;;;;;;;0.57;0.50;;;;;;;;;;5092104;28;20032;-18
2021/05/15 07:53:56;;;;;;;1.27;0.60;;;;;;;;;;5093305;28;20098;-18
2021/05/15 07:56:21;;;;;;;1.30;0.70;;;;;;;;;;5093096;28;20020;-19
2021/05/15 07:58:47;;;;;;;0.40;0.40;;;;;;;;;;5093181;28;20016;-18
2021/05/15 08:01:12;;;;;;;0.40;0.40;;;;;;;;;;5093161;28;20149;-18
2021/05/15 08:03:38;;;;;;;0.85;0.38;;;;;;;;;;5093257;28;20027;-19
2021/05/15 08:06:03;;;;;;;0.22;0.22;;;;;;;;;;5093373;28;20032;-19
2021/05/15 08:08:28;;;;;;;0.65;0.50;;;;;;;;;;5091562;28;20367;-19
2021/05/15 08:10:54;;;;;;;1.05;0.47;;;;;;;;;;5092883;28;20028;-18
2021/05/15 08:13:20;;;;;;;2.17;0.43;;;;;;;;;;5092926;28;20020;-19
2021/05/15 08:15:45;;;;;;;0.75;0.45;;;;;;;;;;5091531;28;20471;-19
2021/05/15 08:18:11;;;;;;;0.80;0.40;;;;;;;;;;5092820;28;20023;-18
2021/05/15 08:20:37;;;;;;;0.60;0.43;;;;;;;;;;5092860;28;20024;-18
2021/05/15 08:23:02;;;;;;;1.20;0.40;;;;;;;;;;5092766;28;20020;-18
2021/05/15 08:25:28;;;;;;;0.40;0.40;;;;;;;;;;5092515;28;20044;-19
2021/05/15 08:27:57;;;;;;;0.50;0.20;;;;;;;;;;5092693;28;20128;-18
2021/05/15 08:30:22;;;;;;;1.08;0.40;;;;;;;;;;5091323;28;20024;-18
2021/05/15 08:32:52;;;;;;;0.70;0.30;;;;;;;;;;5091404;28;20356;-18
2021/05/15 08:35:17;;;;;;;0.95;0.40;;;;;;;;;;5091237;28;20376;-18
2021/05/15 08:37:43;;;;;;;0.55;0.40;;;;;;;;;;5092865;28;20024;-19
2021/05/15 08:40:09;;;;;;;2.47;0.38;;;;;;;;;;5092622;28;20394;-19
2021/05/15 08:42:35;;;;;;;2.40;0.47;;;;;;;;;;5092528;28;20481;-19
2021/05/15 08:45:01;;;;;;;0.80;0.28;;;;;;;;;;5092634;28;20390;-18
2021/05/15 08:47:29;;;;;;;1.05;0.30;;;;;;;;;;5092651;28;20038;-19
2021/05/15 08:49:54;;;;;;;0.20;0.20;;;;;;;;;;5092469;28;20024;-19
2021/05/15 08:52:20;;;;;;;0.63;0.30;;;;;;;;;;5091008;28;20027;-18
2021/05/15 08:54:46;;;;;;;1.38;0.30;;;;;;;;;;5092891;28;20028;-18
2021/05/15 08:57:11;;;;;;;0.30;0.30;;;;;;;;;;5096522;28;20116;-19
2021/05/15 08:59:37;;;;;;;0.73;0.40;;;;;;;;;;5095653;28;20032;-19
2021/05/15 09:02:02;;;;;;;4.05;0.35;;;;;;;;;;5096660;28;20066;-18
2021/05/15 09:04:27;;;;;;;1.17;0.13;;;;;;;;;;5096459;28;20036;-19
2021/05/15 09:06:53;;;;;;;1.75;0.30;;;;;;;;;;5095056;28;20020;-19
2021/05/15 09:09:18;;;;;;;2.45;0.30;;;;;;;;;;5096458;28;20035;-19
2021/05/15 09:11:44;;;;;;;1.08;0.30;;;;;;;;;;5095108;28;20055;-19
2021/05/15 09:14:13;;;;;;;0.73;0.40;;;;;;;;;;5096357;28;20035;-19
2021/05/15 09:16:49;;;;;;;2.03;0.82;;;;;;;;;;5095034;28;20013;-18
2021/05/15 09:19:18;;;;;;;0.70;0.50;;;;;;;;;;5096186;28;20024;-20
2021/05/15 09:21:53;;;;;;;0.90;0.28;;;;;;;;;;5096048;28;20462;-19
2021/05/15 09:24:26;;;;;;;4.32;0.40;;;;;;;;;;5096345;28;20465;-18
2021/05/15 09:26:51;;;;;;;0.57;0.30;;;;;;;;;;5095929;28;20048;-18
2021/05/15 09:29:17;;;;;;;0.68;0.32;;;;;;;;;;5095968;28;20032;-17
2021/05/15 09:31:45;;;;;;;0.55;0.32;;;;;;;;;;5096099;28;20056;-18
2021/05/15 09:34:11;;;;;;;0.75;0.20;;;;;;;;;;5095835;28;20012;-18
2021/05/15 09:36:37;;;;;;;0.47;0.22;;;;;;;;;;5095971;28;20058;-18
2021/05/15 09:39:03;;;;;;;0.22;0.10;;;;;;;;;;5095899;28;20497;-18
2021/05/15 09:41:32;;;;;;;2.38;0.47;;;;;;;;;;5095966;28;20088;-18
2021/05/15 09:43:58;;;;;;;3.40;0.55;;;;;;;;;;5095942;28;20024;-18
2021/05/15 09:46:27;;;;;;;0.50;0.40;;;;;;;;;;5095991;28;20031;-18
2021/05/15 09:48:53;;;;;;;1.35;0.40;;;;;;;;;;5095825;28;20032;-19
2021/05/15 09:51:19;;;;;;;1.35;0.20;;;;;;;;;;5095570;28;20108;-18
2021/05/15 09:53:44;;;;;;;0.20;0.17;;;;;;;;;;5095649;28;20435;-18
2021/05/15 09:56:10;;;;;;;0.38;0.30;;;;;;;;;;5095530;28;20024;-18
2021/05/15 09:58:36;;;;;;;0.88;0.40;;;;;;;;;;5095445;28;20020;-18
2021/05/15 10:01:02;;;;;;;0.40;0.40;;;;;;;;;;5095490;28;20536;-18
2021/05/15 10:03:28;;;;;;;0.38;0.28;;;;;;;;;;5095498;28;20032;-18
2021/05/15 10:06:06;;;;;;;0.95;0.50;;;;;;;;;;5095427;28;20119;-18
2021/05/15 10:08:32;;;;;;;0.77;0.50;;;;;;;;;;5094580;28;20076;-19
2021/05/15 10:10:58;;;;;;;1.50;0.35;;;;;;;;;;5095238;28;20058;-19
2021/05/15 10:13:23;;;;;;;0.43;0.25;;;;;;;;;;5095404;28;20378;-19
2021/05/15 10:15:49;;;;;;;1.42;0.45;;;;;;;;;;5095423;28;20020;-19
2021/05/15 10:18:15;;;;;;;3.97;0.75;;;;;;;;;;5095309;28;20514;-18
2021/05/15 10:20:41;;;;;;;0.90;0.30;;;;;;;;;;5095384;28;20012;-19
2021/05/15 10:23:22;;;;;;;1.65;0.40;;;;;;;;;;5095316;28;20032;-19
2021/05/15 10:25:49;;;;;;;2.38;0.30;;;;;;;;;;5094807;28;20119;-19
2021/05/15 10:28:24;;;;;;;2.20;0.40;;;;;;;;;;5095140;28;20062;-19
2021/05/15 10:30:49;;;;;;;2.92;0.40;;;;;;;;;;5095150;28;20039;-18
2021/05/15 10:33:15;;;;;;;0.70;0.30;;;;;;;;;;5094703;28;20023;-19
2021/05/15 10:35:41;;;;;;;0.50;0.40;;;;;;;;;;5095107;28;20059;-19
2021/05/15 10:38:10;;;;;;;1.13;0.40;;;;;;;;;;5094780;28;20467;-19
2021/05/15 10:40:46;;;;;;;0.57;0.40;;;;;;;;;;5094550;28;20390;-19
2021/05/15 10:43:12;;;;;;;0.43;0.43;;;;;;;;;;5094646;28;20039;-19
2021/05/15 10:45:38;;;;;;;2.55;0.30;;;;;;;;;;5093296;28;20020;-18
2021/05/15 10:48:21;;;;;;;0.40;0.22;;;;;;;;;;5094462;28;20115;-18
2021/05/15 10:50:47;;;;;;;;;;;;;;;;;;5095004;28;20109;-18
2021/05/15 10:53:17;;;;;;;0.80;0.73;;;;;;;;;;5094297;28;20340;-19
2021/05/15 10:55:42;;;;;;;2.40;0.60;;;;;;;;;;5093177;28;20089;-18
2021/05/15 10:58:12;;;;;;;1.33;0.57;;;;;;;;;;5094643;28;20024;-19
2021/05/15 11:00:37;;;;;;;0.88;0.38;;;;;;;;;;5093149;28;20058;-19
2021/05/15 11:03:03;;;;;;;1.02;0.40;;;;;;;;;;5094355;28;20549;-18
2021/05/15 11:05:40;;;;;;;2.05;0.50;;;;;;;;;;5094079;28;20024;-18
2021/05/15 11:08:05;;;;;;;2.92;0.60;;;;;;;;;;5094111;28;20667;-19
2021/05/15 11:10:34;;;;;;;2.63;0.35;;;;;;;;;;5094031;28;20097;-18
2021/05/15 11:13:05;;;;;;;4.10;0.50;;;;;;;;;;5092838;28;20513;-18
2021/05/15 11:15:30;;;;;;;3.28;0.52;;;;;;;;;;5093853;28;20032;-18
2021/05/15 11:18:03;;;;;;;0.57;0.30;;;;;;;;;;5093826;28;20035;-19
2021/05/15 11:20:40;;;;;;;3.53;0.40;;;;;;;;;;5093797;28;20117;-19
2021/05/15 11:23:10;;;;;;;0.32;0.30;;;;;;;;;;5092545;28;20028;-18
2021/05/15 11:25:36;;;;;;;2.75;0.52;;;;;;;;;;5093592;28;20055;-19
2021/05/15 11:28:03;;;;;;;0.40;0.40;;;;;;;;;;5093733;28;20036;-18
2021/05/15 11:30:32;;;;;;;0.68;0.30;;;;;;;;;;5093650;28;20085;-19
2021/05/15 11:32:59;;;;;;;1.60;0.50;;;;;;;;;;5092412;28;20028;-18
2021/05/15 11:35:25;;;;;;;5.22;0.38;;;;;;;;;;5093469;28;20020;-19
2021/05/15 11:38:04;;;;;;;1.10;0.28;;;;;;;;;;5093542;28;20032;-18
2021/05/15 11:40:30;;;;;;;1.88;0.47;;;;;;;;;;5093511;28;20097;-19
2021/05/15 11:42:56;;;;;;;0.82;0.30;;;;;;;;;;5093505;28;20024;-19
2021/05/15 11:45:25;;;;;;;0.90;0.60;;;;;;;;;;5093371;28;20030;-19
2021/05/15 11:48:02;;;;;;;3.25;0.43;;;;;;;;;;5093367;28;20020;-19
2021/05/15 11:50:27;;;;;;;0.45;0.32;;;;;;;;;;5093575;28;20429;-18
2021/05/15 11:52:58;;;;;;;1.80;0.32;;;;;;;;;;5093639;28;20016;-19
2021/05/15 11:55:24;;;;;;;1.00;0.50;;;;;;;;;;5093181;28;20059;-19
2021/05/15 11:57:55;;;;;;;1.80;0.38;;;;;;;;;;5093226;28;20048;-19
2021/05/15 12:00:25;;;;;;;3.70;0.75;;;;;;;;;;5093367;28;20378;-18
2021/05/15 12:02:50;;;;;;;3.17;0.70;;;;;;;;;;5093172;28;20020;-19
2021/05/15 12:05:16;;;;;;;3.67;0.73;;;;;;;;;;5092926;28;20528;-19
2021/05/15 12:07:45;;;;;;;1.67;0.63;;;;;;;;;;5091677;28;20118;-19
2021/05/15 12:10:12;;;;;;;2.10;0.85;;;;;;;;;;5093274;28;20027;-18
2021/05/15 12:12:37;;;;;;;1.30;0.57;;;;;;;;;;5092833;28;20496;-18
2021/05/15 12:15:03;;;;;;;1.67;0.38;;;;;;;;;;5092977;28;20056;-19
2021/05/15 12:17:28;;;;;;;1.13;0.50;;;;;;;;;;5092821;28;20042;-18
2021/05/15 12:19:54;;;;;;;1.55;0.52;;;;;;;;;;5092844;28;20113;-18
2021/05/15 12:22:24;;;;;;;4.82;0.85;;;;;;;;;;5093010;28;20062;-18
2021/05/15 12:24:49;;;;;;;2.90;1.23;;;;;;;;;;5092751;28;20028;-19
2021/05/15 12:27:15;;;;;;;1.70;0.70;;;;;;;;;;5091154;28;20043;-19
2021/05/15 12:29:41;;;;;;;1.17;0.52;;;;;;;;;;5092182;28;20114;-18
2021/05/15 12:32:07;;;;;;;2.17;0.60;;;;;;;;;;5092760;28;20020;-18
2021/05/15 12:34:33;;;;;;;3.75;0.47;;;;;;;;;;5092730;28;20081;-18
2021/05/15 12:36:58;;;;;;;2.08;0.68;;;;;;;;;;5092874;28;20088;-18
2021/05/15 12:39:30;;;;;;;1.95;0.80;;;;;;;;;;5092807;28;20618;-19
2021/05/15 12:41:56;;;;;;;1.30;0.70;;;;;;;;;;5091322;28;20141;-18
2021/05/15 12:44:21;;;;;;;2.97;0.52;;;;;;;;;;5092532;28;20035;-18
2021/05/15 12:46:48;;;;;;;1.42;0.60;;;;;;;;;;5092551;28;20054;-19
2021/05/15 12:49:14;;;;;;;1.10;0.73;;;;;;;;;;5092497;28;20031;-18
2021/05/15 12:51:52;;;;;;;2.88;0.88;;;;;;;;;;5092563;28;20032;-19
2021/05/15 12:54:21;;;;;;;2.33;0.70;;;;;;;;;;5092059;28;20036;-18
2021/05/15 12:56:51;;;;;;;2.05;0.82;;;;;;;;;;5092819;28;20038;-19
2021/05/15 12:59:40;;;;;;;1.20;0.80;;;;;;;;;;5091157;28;20028;-18
2021/05/15 13:02:09;;;;;;;2.60;0.57;;;;;;;;;;5088899;28;20498;-18
2021/05/15 13:04:34;;;;;;;0.63;0.50;;;;;;;;;;5092318;28;20374;-19
2021/05/15 13:07:00;;;;;;;1.00;0.50;;;;;;;;;;5092577;28;20077;-18
2021/05/15 13:09:26;;;;;;;0.22;0.22;;;;;;;;;;5092157;28;20410;-19
2021/05/15 13:11:51;;;;;;;0.75;0.57;;;;;;;;;;5092257;28;20035;-18
2021/05/15 13:14:18;;;;;;;0.93;0.52;;;;;;;;;;5092525;28;20092;-18
2021/05/15 13:16:43;;;;;;;3.13;0.55;;;;;;;;;;5092493;28;20071;-18
2021/05/15 13:19:09;;;;;;;2.20;0.45;;;;;;;;;;5092585;28;20047;-18
2021/05/15 13:21:35;;;;;;;0.75;0.30;;;;;;;;;;5092329;28;20028;-18
2021/05/15 13:24:00;;;;;;;0.20;0.20;;;;;;;;;;5092066;28;20348;-18
2021/05/15 13:26:26;;;;;;;0.63;0.43;;;;;;;;;;5092032;28;20052;-18
2021/05/15 13:28:51;;;;;;;2.22;0.68;;;;;;;;;;5092330;28;20089;-18
2021/05/15 13:31:17;;;;;;;0.28;0.28;;;;;;;;;;5092317;28;20111;-18
2021/05/15 13:33:42;;;;;;;0.70;0.10;;;;;;;;;;5092032;28;20056;-18
2021/05/15 13:36:07;;;;;;;0.43;0.43;;;;;;;;;;5092097;28;20067;-18
2021/05/15 13:38:33;;;;;;;0.50;0.50;;;;;;;;;;5092023;28;20016;-18
2021/05/15 13:40:58;;;;;;;0.80;0.43;;;;;;;;;;5093051;28;20032;-18
2021/05/15 13:43:23;;;;;;;2.40;0.50;;;;;;;;;;5095683;28;20417;-17
2021/05/15 13:45:49;;;;;;;0.35;0.35;;;;;;;;;;5095733;28;20044;-18
2021/05/15 13:48:29;;;;;;;0.55;0.20;;;;;;;;;;5095868;28;20036;-17
2021/05/15 13:50:56;;;;;;;0.30;0.30;;;;;;;;;;5095707;28;20036;-18
2021/05/15 13:53:21;;;;;;;0.55;0.20;;;;;;;;;;5095523;28;20411;-18
2021/05/15 13:55:47;;;;;;;0.43;0.40;;;;;;;;;;5094356;28;20121;-18
2021/05/15 13:58:12;;;;;;;0.40;0.30;;;;;;;;;;5095395;28;20077;-18
2021/05/15 14:00:38;;;;;;;0.70;0.40;;;;;;;;;;5094298;28;20111;-18
2021/05/15 14:03:03;;;;;;;2.55;0.47;;;;;;;;;;5095545;28;20044;-18
2021/05/15 14:05:28;;;;;;;0.68;0.40;;;;;;;;;;5095552;28;20416;-18
2021/05/15 14:07:54;;;;;;;1.20;0.80;;;;;;;;;;5095549;28;20032;-18
2021/05/15 14:10:19;;;;;;;0.55;0.55;;;;;;;;;;5095280;28;20028;-18
2021/05/15 14:12:45;;;;;;;0.38;0.38;;;;;;;;;;5095265;28;20024;-18
2021/05/15 14:15:11;;;;;;;1.38;0.40;;;;;;;;;;5095194;28;20028;-18
2021/05/15 14:17:36;;;;;;;3.10;0.25;;;;;;;;;;5093941;28;20020;-18
2021/05/15 14:20:03;;;;;;;0.10;0.10;;;;;;;;;;5094161;28;20491;-18
2021/05/15 14:22:28;;;;;;;0.60;0.30;;;;;;;;;;5094684;28;20016;-18
2021/05/15 14:24:54;;;;;;;0.30;0.30;;;;;;;;;;5094766;28;20028;-19
2021/05/15 14:27:21;;;;;;;0.38;0.30;;;;;;;;;;5094643;28;20044;-18
2021/05/15 14:29:47;;;;;;;0.47;0.30;;;;;;;;;;5094294;28;20443;-18
2021/05/15 14:32:13;;;;;;;0.25;0.20;;;;;;;;;;5094914;28;20046;-19
2021/05/15 14:34:39;;;;;;;0.30;0.30;;;;;;;;;;5093996;28;20056;-18
2021/05/15 14:37:05;;;;;;;0.28;0.28;;;;;;;;;;5094740;28;20051;-19
2021/05/15 14:39:31;;;;;;;0.22;0.22;;;;;;;;;;5094324;28;20043;-18